»·PEaware :: UAL241 KPHX-KLAS

UAL241 :: KPHX-KLAS

FLIGHT INFORMATION

Flight Status: Arrived
Operator:
United Airlines
More flights by this operator :: More flights under this callsign
Pilot: Ryan H. (12491)
Aircraft: BOEING 737-800
(B738)
More flights by this aircraft type
Origin: KPHX Phoenix Sky Harbor Intl
United States
Destination: KLAS McCarran Intl
United States
More flights between these airports :: More routes between these airports
Route: +MAYSA5 SISIE IGM TYSSN5
File this flight plan on PilotEdge
Remarks:
Altitude:
(Current/Filed)
280ft
Speed:
(Current/Filed)
450kts
Departed: 06-Jan-18 09:53 PM
Arrived: 06-Jan-18 10:49 PM
Distance/Time
Traveled:
222nm/0:56
Distance/Time
To Go:
Arrived

Flight Plot

Page will automatically refresh every two minutes.

Flight plan parsing failed; only flown route is shown


Map Options




Map Legend


Flown Route
Filed Route
Departure Airport
Arrival Airport
Navaid (VOR, NDB)
Fix

Horizontal Profiles

Position Reports

Time Latitude Longitude Heading Altitude Ground
Speed
06-Jan-18 21:46 33.436935 -112.008057 269 1144ft 0kts
06-Jan-18 21:47 33.436935 -112.008057 269 1144ft 0kts
06-Jan-18 21:48 33.436935 -112.008057 269 1144ft 0kts
06-Jan-18 21:49 33.436935 -112.008057 269 1144ft 0kts
06-Jan-18 21:50 33.436935 -112.008057 269 1144ft 0kts
06-Jan-18 21:51 33.436935 -112.008057 269 1144ft 0kts
06-Jan-18 21:52 33.436935 -112.008057 269 1144ft 0kts
06-Jan-18 21:53 33.436779 -112.007455 308 1144ft 3kts
06-Jan-18 21:54 33.437920 -112.007428 357 1144ft 16kts
06-Jan-18 21:55 33.439581 -112.003291 79 1144ft 30kts
06-Jan-18 21:56 33.439807 -111.992558 38 1144ft 0kts
06-Jan-18 21:57 33.439807 -111.992558 38 1144ft 0kts
06-Jan-18 21:58 33.440820 -111.992452 284 1144ft 4kts
06-Jan-18 21:59 33.440805 -112.022293 266 1847ft 175kts
06-Jan-18 22:00 33.437824 -112.087320 300 4631ft 235kts
06-Jan-18 22:01 33.493291 -112.141380 320 8144ft 271kts
06-Jan-18 22:02 33.561932 -112.187825 344 11294ft 318kts
06-Jan-18 22:03 33.654199 -112.212911 342 13993ft 364kts
06-Jan-18 22:04 33.757307 -112.246520 341 17166ft 384kts
06-Jan-18 22:05 33.858319 -112.277889 339 19909ft 379kts
06-Jan-18 22:06 33.958625 -112.312163 344 21462ft 413kts
06-Jan-18 22:07 34.064990 -112.371838 321 23394ft 434kts
06-Jan-18 22:08 34.158932 -112.467243 319 25284ft 447kts
06-Jan-18 22:09 34.255521 -112.564608 319 26937ft 459kts
06-Jan-18 22:10 34.329061 -112.639104 317 27753ft 444kts
06-Jan-18 22:11 34.425079 -112.736348 317 28004ft 461kts
06-Jan-18 22:12 34.523520 -112.836032 317 28003ft 461kts
06-Jan-18 22:13 34.620715 -112.937953 315 28003ft 460kts
06-Jan-18 22:14 34.715266 -113.042595 315 28003ft 460kts
06-Jan-18 22:15 34.810402 -113.146691 315 28003ft 460kts
06-Jan-18 22:16 34.905711 -113.251389 315 28003ft 460kts
06-Jan-18 22:17 34.995052 -113.361782 300 28002ft 456kts
06-Jan-18 22:18 35.058222 -113.496286 297 28003ft 455kts
06-Jan-18 22:19 35.120611 -113.630772 297 28003ft 456kts
06-Jan-18 22:20 35.170980 -113.739798 297 27287ft 428kts
06-Jan-18 22:21 35.237730 -113.884532 297 24497ft 408kts
06-Jan-18 22:22 35.298352 -113.969705 318 22652ft 398kts
06-Jan-18 22:23 35.398903 -114.062626 319 20304ft 380kts
06-Jan-18 22:24 35.468345 -114.127473 319 18677ft 371kts
06-Jan-18 22:25 35.562367 -114.215254 319 16358ft 358kts
06-Jan-18 22:26 35.627094 -114.275743 319 14881ft 334kts
06-Jan-18 22:27 35.696205 -114.340277 319 14307ft 289kts
06-Jan-18 22:28 35.752379 -114.400472 287 13137ft 258kts
06-Jan-18 22:29 35.720438 -114.471041 203 11822ft 265kts
06-Jan-18 22:30 35.654245 -114.436538 131 11816ft 290kts
06-Jan-18 22:31 35.606477 -114.356838 127 11807ft 289kts
06-Jan-18 22:32 35.591128 -114.266918 52 11807ft 291kts
06-Jan-18 22:33 35.658498 -114.254455 317 11807ft 260kts
06-Jan-18 22:34 35.704813 -114.322018 305 11807ft 257kts
06-Jan-18 22:35 35.746499 -114.393058 290 11796ft 254kts
06-Jan-18 22:36 35.722962 -114.467056 208 11806ft 264kts
06-Jan-18 22:37 35.657452 -114.434985 130 11823ft 290kts
06-Jan-18 22:38 35.607433 -114.357641 128 11807ft 289kts
06-Jan-18 22:39 35.590591 -114.267995 54 11824ft 294kts
06-Jan-18 22:40 35.659296 -114.254566 323 11859ft 267kts
06-Jan-18 22:41 35.705536 -114.323309 304 11850ft 262kts
06-Jan-18 22:42 35.751688 -114.392554 323 11847ft 266kts
06-Jan-18 22:43 35.822639 -114.423354 338 11262ft 275kts
06-Jan-18 22:44 35.893711 -114.453792 335 9925ft 263kts
06-Jan-18 22:45 35.946047 -114.512273 302 8840ft 265kts
06-Jan-18 22:46 35.985176 -114.589829 301 7287ft 266kts
06-Jan-18 22:47 36.024334 -114.666191 302 6852ft 264kts
06-Jan-18 22:48 36.060000 -114.745333 292 6602ft 261kts
06-Jan-18 22:49 36.073189 -114.832773 272 5249ft 258kts
06-Jan-18 22:50 36.073861 -114.915363 269 4818ft 202kts
06-Jan-18 22:51 36.073796 -114.973942 269 4677ft 158kts
06-Jan-18 22:52 36.073752 -115.026877 270 3776ft 151kts
06-Jan-18 22:53 36.073707 -115.079014 269 2977ft 153kts
06-Jan-18 22:54 36.073655 -115.130245 270 2201ft 143kts
06-Jan-18 22:55 36.074786 -115.150672 308 2190ft 0kts
06-Jan-18 22:56 36.074787 -115.150674 308 2190ft 0kts
06-Jan-18 22:57 36.077819 -115.152786 333 2190ft 19kts
06-Jan-18 22:58 36.080677 -115.152069 354 2190ft 14kts
06-Jan-18 22:59 36.081387 -115.153326 281 2190ft 0kts
06-Jan-18 23:00 36.081418 -115.153465 295 2190ft 4kts
06-Jan-18 23:01 36.082526 -115.153634 63 2190ft 1kts
06-Jan-18 23:02 36.082534 -115.153613 63 2190ft 0kts

Navigation Log

Ident Type
Flight plan parsing failed, navigation log unavailable